sensor_id;sensor_type;location;lat;lon;timestamp;pressure;altitude;pressure_sealevel;temperature;humidity
12626;BME280;6378;42.684;23.372;2022-12-10T00:01:18;94473.50;;;9.41;100.00
12626;BME280;6378;42.684;23.372;2022-12-10T00:03:44;94473.22;;;9.46;100.00
12626;BME280;6378;42.684;23.372;2022-12-10T00:06:24;94469.25;;;9.40;100.00
12626;BME280;6378;42.684;23.372;2022-12-10T00:08:51;94470.66;;;9.53;100.00
12626;BME280;6378;42.684;23.372;2022-12-10T00:11:18;94494.81;;;9.34;100.00
12626;BME280;6378;42.684;23.372;2022-12-10T00:13:44;94457.88;;;9.47;100.00
12626;BME280;6378;42.684;23.372;2022-12-10T00:16:15;94477.66;;;9.58;100.00
12626;BME280;6378;42.684;23.372;2022-12-10T00:18:41;94492.66;;;9.59;100.00
12626;BME280;6378;42.684;23.372;2022-12-10T00:21:10;94452.31;;;9.55;100.00
12626;BME280;6378;42.684;23.372;2022-12-10T00:23:37;94455.00;;;9.55;100.00
12626;BME280;6378;42.684;23.372;2022-12-10T00:26:12;94460.78;;;9.57;100.00
12626;BME280;6378;42.684;23.372;2022-12-10T00:28:38;94443.66;;;9.46;100.00
12626;BME280;6378;42.684;23.372;2022-12-10T00:31:05;94453.44;;;9.54;100.00
12626;BME280;6378;42.684;23.372;2022-12-10T00:33:31;94460.13;;;9.45;100.00
12626;BME280;6378;42.684;23.372;2022-12-10T00:36:04;94485.38;;;9.60;100.00
12626;BME280;6378;42.684;23.372;2022-12-10T00:38:31;94466.50;;;9.56;100.00
12626;BME280;6378;42.684;23.372;2022-12-10T00:40:56;94460.97;;;9.49;100.00
12626;BME280;6378;42.684;23.372;2022-12-10T00:43:21;94460.63;;;9.50;100.00
12626;BME280;6378;42.684;23.372;2022-12-10T00:45:47;94481.22;;;9.43;100.00
12626;BME280;6378;42.684;23.372;2022-12-10T00:48:12;94466.50;;;9.56;100.00
12626;BME280;6378;42.684;23.372;2022-12-10T00:50:38;94453.00;;;9.52;100.00
12626;BME280;6378;42.684;23.372;2022-12-10T00:53:03;94460.47;;;9.43;100.00
12626;BME280;6378;42.684;23.372;2022-12-10T00:55:28;94459.22;;;9.37;100.00
12626;BME280;6378;42.684;23.372;2022-12-10T00:57:54;94472.94;;;9.51;100.00
12626;BME280;6378;42.684;23.372;2022-12-10T01:00:19;94462.31;;;9.58;100.00
12626;BME280;6378;42.684;23.372;2022-12-10T01:02:45;94484.59;;;9.59;100.00
12626;BME280;6378;42.684;23.372;2022-12-10T01:05:10;94486.78;;;9.53;100.00
12626;BME280;6378;42.684;23.372;2022-12-10T01:07:35;94465.03;;;9.58;100.00
12626;BME280;6378;42.684;23.372;2022-12-10T01:10:01;94480.78;;;9.60;100.00
12626;BME280;6378;42.684;23.372;2022-12-10T01:12:26;94475.16;;;9.65;100.00
12626;BME280;6378;42.684;23.372;2022-12-10T01:14:52;94448.00;;;9.70;100.00
12626;BME280;6378;42.684;23.372;2022-12-10T01:17:17;94435.84;;;9.76;100.00
12626;BME280;6378;42.684;23.372;2022-12-10T01:19:43;94456.56;;;9.76;100.00
12626;BME280;6378;42.684;23.372;2022-12-10T01:22:08;94460.94;;;9.84;100.00
12626;BME280;6378;42.684;23.372;2022-12-10T01:24:34;94449.91;;;9.89;100.00
12626;BME280;6378;42.684;23.372;2022-12-10T01:27:00;94445.31;;;9.89;100.00
12626;BME280;6378;42.684;23.372;2022-12-10T01:29:26;94443.75;;;9.88;100.00
12626;BME280;6378;42.684;23.372;2022-12-10T01:31:54;94464.13;;;9.89;100.00
12626;BME280;6378;42.684;23.372;2022-12-10T01:34:20;94445.81;;;9.95;100.00
12626;BME280;6378;42.684;23.372;2022-12-10T01:36:50;94428.16;;;9.97;100.00
12626;BME280;6378;42.684;23.372;2022-12-10T01:39:18;94388.66;;;9.79;100.00
12626;BME280;6378;42.684;23.372;2022-12-10T01:41:52;94431.53;;;9.91;100.00
12626;BME280;6378;42.684;23.372;2022-12-10T01:46:45;94443.44;;;10.13;100.00
12626;BME280;6378;42.684;23.372;2022-12-10T01:51:44;94445.28;;;10.09;100.00
12626;BME280;6378;42.684;23.372;2022-12-10T01:54:17;94436.09;;;10.10;100.00
12626;BME280;6378;42.684;23.372;2022-12-10T01:56:45;94411.69;;;9.99;100.00
12626;BME280;6378;42.684;23.372;2022-12-10T01:59:13;94439.19;;;10.12;100.00
12626;BME280;6378;42.684;23.372;2022-12-10T02:17:12;94459.94;;;10.30;100.00
12626;BME280;6378;42.684;23.372;2022-12-10T02:22:13;94420.44;;;10.15;100.00
12626;BME280;6378;42.684;23.372;2022-12-10T02:24:41;94454.06;;;10.06;100.00
12626;BME280;6378;42.684;23.372;2022-12-10T02:27:18;94427.28;;;10.13;100.00
12626;BME280;6378;42.684;23.372;2022-12-10T02:29:46;94401.88;;;9.87;100.00
12626;BME280;6378;42.684;23.372;2022-12-10T02:32:16;94429.03;;;10.02;100.00
12626;BME280;6378;42.684;23.372;2022-12-10T02:34:48;94394.94;;;10.06;100.00
12626;BME280;6378;42.684;23.372;2022-12-10T02:37:29;94407.28;;;10.10;100.00
12626;BME280;6378;42.684;23.372;2022-12-10T02:39:58;94396.00;;;10.01;100.00
12626;BME280;6378;42.684;23.372;2022-12-10T02:42:26;94408.13;;;10.14;100.00
12626;BME280;6378;42.684;23.372;2022-12-10T02:44:53;94413.84;;;10.13;100.00
12626;BME280;6378;42.684;23.372;2022-12-10T02:47:20;94424.53;;;10.28;100.00
12626;BME280;6378;42.684;23.372;2022-12-10T02:49:47;94398.94;;;10.15;100.00
12626;BME280;6378;42.684;23.372;2022-12-10T02:52:18;94407.69;;;10.12;100.00
12626;BME280;6378;42.684;23.372;2022-12-10T02:54:47;94395.97;;;10.20;100.00
12626;BME280;6378;42.684;23.372;2022-12-10T03:00:19;94414.56;;;10.29;100.00
12626;BME280;6378;42.684;23.372;2022-12-10T03:05:24;94409.81;;;10.22;100.00
12626;BME280;6378;42.684;23.372;2022-12-10T03:08:01;94416.41;;;10.25;100.00
12626;BME280;6378;42.684;23.372;2022-12-10T03:10:33;94415.41;;;10.33;100.00
12626;BME280;6378;42.684;23.372;2022-12-10T03:13:06;94410.03;;;10.33;100.00
12626;BME280;6378;42.684;23.372;2022-12-10T03:15:34;94401.06;;;10.48;100.00
12626;BME280;6378;42.684;23.372;2022-12-10T03:18:04;94393.41;;;10.27;100.00
12626;BME280;6378;42.684;23.372;2022-12-10T03:20:37;94411.38;;;10.46;100.00
12626;BME280;6378;42.684;23.372;2022-12-10T03:23:07;94412.28;;;10.54;100.00
12626;BME280;6378;42.684;23.372;2022-12-10T03:25:34;94401.22;;;10.59;100.00
12626;BME280;6378;42.684;23.372;2022-12-10T03:28:01;94410.44;;;10.58;100.00
12626;BME280;6378;42.684;23.372;2022-12-10T03:30:26;94405.88;;;10.62;100.00
12626;BME280;6378;42.684;23.372;2022-12-10T03:32:52;94400.25;;;10.70;100.00
12626;BME280;6378;42.684;23.372;2022-12-10T03:35:20;94338.44;;;10.25;100.00
12626;BME280;6378;42.684;23.372;2022-12-10T03:37:48;94395.25;;;10.69;100.00
12626;BME280;6378;42.684;23.372;2022-12-10T03:40:16;94407.19;;;10.71;100.00
12626;BME280;6378;42.684;23.372;2022-12-10T03:42:43;94407.19;;;10.71;100.00
12626;BME280;6378;42.684;23.372;2022-12-10T03:45:09;94391.88;;;10.75;100.00
12626;BME280;6378;42.684;23.372;2022-12-10T03:47:35;94399.53;;;10.73;100.00
12626;BME280;6378;42.684;23.372;2022-12-10T03:50:00;94385.25;;;10.69;100.00
12626;BME280;6378;42.684;23.372;2022-12-10T03:52:26;94357.66;;;10.50;100.00
12626;BME280;6378;42.684;23.372;2022-12-10T03:54:51;94371.22;;;10.57;100.00
12626;BME280;6378;42.684;23.372;2022-12-10T03:57:17;94374.50;;;10.47;100.00
12626;BME280;6378;42.684;23.372;2022-12-10T03:59:42;94392.38;;;10.58;100.00
12626;BME280;6378;42.684;23.372;2022-12-10T04:02:08;94390.41;;;10.55;100.00
12626;BME280;6378;42.684;23.372;2022-12-10T04:04:33;94390.41;;;10.55;100.00
12626;BME280;6378;42.684;23.372;2022-12-10T04:06:58;94392.25;;;10.51;100.00
12626;BME280;6378;42.684;23.372;2022-12-10T04:09:24;94383.16;;;10.36;100.00
12626;BME280;6378;42.684;23.372;2022-12-10T04:11:49;94384.72;;;10.37;100.00
12626;BME280;6378;42.684;23.372;2022-12-10T04:14:15;94391.31;;;10.40;100.00
12626;BME280;6378;42.684;23.372;2022-12-10T04:16:59;94357.16;;;9.98;100.00
12626;BME280;6378;42.684;23.372;2022-12-10T04:19:25;94398.28;;;10.22;100.00
12626;BME280;6378;42.684;23.372;2022-12-10T04:21:51;94399.44;;;10.21;100.00
12626;BME280;6378;42.684;23.372;2022-12-10T04:24:36;94382.19;;;10.02;100.00
12626;BME280;6378;42.684;23.372;2022-12-10T04:27:29;94399.03;;;10.19;100.00
12626;BME280;6378;42.684;23.372;2022-12-10T04:29:56;94401.75;;;10.22;100.00
12626;BME280;6378;42.684;23.372;2022-12-10T04:32:23;94400.59;;;10.20;100.00
12626;BME280;6378;42.684;23.372;2022-12-10T04:34:49;94404.06;;;10.01;100.00
12626;BME280;6378;42.684;23.372;2022-12-10T04:37:15;94419.13;;;10.06;100.00
12626;BME280;6378;42.684;23.372;2022-12-10T04:39:41;94413.03;;;10.09;100.00
12626;BME280;6378;42.684;23.372;2022-12-10T04:42:07;94419.66;;;10.15;100.00
12626;BME280;6378;42.684;23.372;2022-12-10T04:44:33;94412.91;;;10.21;100.00
12626;BME280;6378;42.684;23.372;2022-12-10T04:46:59;94401.84;;;10.26;100.00
12626;BME280;6378;42.684;23.372;2022-12-10T04:49:24;94403.38;;;10.27;100.00
12626;BME280;6378;42.684;23.372;2022-12-10T04:51:50;94412.53;;;10.22;100.00
12626;BME280;6378;42.684;23.372;2022-12-10T04:54:16;94414.56;;;10.29;100.00
12626;BME280;6378;42.684;23.372;2022-12-10T04:56:42;94417.13;;;10.22;100.00
12626;BME280;6378;42.684;23.372;2022-12-10T04:59:08;94427.78;;;10.37;100.00
12626;BME280;6378;42.684;23.372;2022-12-10T05:01:34;94425.88;;;10.38;100.00
12626;BME280;6378;42.684;23.372;2022-12-10T05:04:01;94423.22;;;10.41;100.00
12626;BME280;6378;42.684;23.372;2022-12-10T05:06:27;94411.22;;;10.35;100.00
12626;BME280;6378;42.684;23.372;2022-12-10T05:08:52;94408.16;;;10.37;100.00
12626;BME280;6378;42.684;23.372;2022-12-10T05:11:20;94407.81;;;10.38;100.00
12626;BME280;6378;42.684;23.372;2022-12-10T05:13:46;94397.69;;;10.32;100.00
12626;BME280;6378;42.684;23.372;2022-12-10T05:16:16;94417.19;;;10.48;100.00
12626;BME280;6378;42.684;23.372;2022-12-10T05:18:42;94421.16;;;10.54;100.00
12626;BME280;6378;42.684;23.372;2022-12-10T05:21:11;94416.06;;;10.49;100.00
12626;BME280;6378;42.684;23.372;2022-12-10T05:23:39;94408.59;;;10.39;100.00
12626;BME280;6378;42.684;23.372;2022-12-10T05:26:07;94406.97;;;10.34;100.00
12626;BME280;6378;42.684;23.372;2022-12-10T05:28:36;94385.31;;;10.27;100.00
12626;BME280;6378;42.684;23.372;2022-12-10T05:31:02;94387.53;;;10.22;100.00
12626;BME280;6378;42.684;23.372;2022-12-10T05:33:28;94393.69;;;10.22;100.00
12626;BME280;6378;42.684;23.372;2022-12-10T05:35:58;94395.75;;;10.10;100.00
12626;BME280;6378;42.684;23.372;2022-12-10T05:38:24;94392.00;;;10.14;100.00
12626;BME280;6378;42.684;23.372;2022-12-10T05:40:50;94406.06;;;10.27;100.00
12626;BME280;6378;42.684;23.372;2022-12-10T05:43:15;94397.69;;;10.32;100.00
12626;BME280;6378;42.684;23.372;2022-12-10T05:45:41;94407.31;;;10.33;100.00
12626;BME280;6378;42.684;23.372;2022-12-10T05:48:12;94410.06;;;10.36;100.00
12626;BME280;6378;42.684;23.372;2022-12-10T05:50:37;94388.84;;;10.31;100.00
12626;BME280;6378;42.684;23.372;2022-12-10T05:53:03;94432.75;;;10.58;100.00
12626;BME280;6378;42.684;23.372;2022-12-10T05:55:29;94409.56;;;10.50;100.00
12626;BME280;6378;42.684;23.372;2022-12-10T05:57:56;94417.47;;;10.66;100.00
12626;BME280;6378;42.684;23.372;2022-12-10T06:00:22;94429.16;;;10.73;100.00
12626;BME280;6378;42.684;23.372;2022-12-10T06:02:49;94403.97;;;10.62;100.00
12626;BME280;6378;42.684;23.372;2022-12-10T06:05:16;94399.72;;;10.61;100.00
12626;BME280;6378;42.684;23.372;2022-12-10T06:07:41;94426.56;;;10.80;100.00
12626;BME280;6378;42.684;23.372;2022-12-10T06:10:07;94427.72;;;10.79;100.00
12626;BME280;6378;42.684;23.372;2022-12-10T06:12:32;94431.53;;;10.78;100.00
12626;BME280;6378;42.684;23.372;2022-12-10T06:14:58;94430.19;;;10.92;100.00
12626;BME280;6378;42.684;23.372;2022-12-10T06:17:23;94421.03;;;10.96;100.00
12626;BME280;6378;42.684;23.372;2022-12-10T06:19:48;94425.31;;;11.01;100.00
12626;BME280;6378;42.684;23.372;2022-12-10T06:22:14;94409.78;;;10.91;100.00
12626;BME280;6378;42.684;23.372;2022-12-10T06:24:39;94430.50;;;10.86;100.00
12626;BME280;6378;42.684;23.372;2022-12-10T06:27:05;94435.06;;;10.82;100.00
12626;BME280;6378;42.684;23.372;2022-12-10T06:29:30;94443.13;;;10.82;100.00
12626;BME280;6378;42.684;23.372;2022-12-10T06:31:56;94419.81;;;10.67;100.00
12626;BME280;6378;42.684;23.372;2022-12-10T06:34:21;94418.66;;;11.17;100.00
12626;BME280;6378;42.684;23.372;2022-12-10T06:36:47;94409.88;;;10.94;100.00
12626;BME280;6378;42.684;23.372;2022-12-10T06:39:12;94412.75;;;10.82;100.00
12626;BME280;6378;42.684;23.372;2022-12-10T06:41:38;94390.47;;;10.59;100.00
12626;BME280;6378;42.684;23.372;2022-12-10T06:44:07;94407.44;;;10.63;100.00
12626;BME280;6378;42.684;23.372;2022-12-10T06:46:32;94405.94;;;10.65;100.00
12626;BME280;6378;42.684;23.372;2022-12-10T06:48:57;94419.38;;;10.65;100.00
12626;BME280;6378;42.684;23.372;2022-12-10T06:51:23;94422.81;;;10.62;100.00
12626;BME280;6378;42.684;23.372;2022-12-10T06:53:48;94430.59;;;10.67;100.00
12626;BME280;6378;42.684;23.372;2022-12-10T06:56:16;94436.50;;;10.76;100.00
12626;BME280;6378;42.684;23.372;2022-12-10T06:58:42;94436.19;;;10.81;100.00
12626;BME280;6378;42.684;23.372;2022-12-10T07:01:17;94438.09;;;10.81;100.00
12626;BME280;6378;42.684;23.372;2022-12-10T07:03:48;94446.19;;;10.81;100.00
12626;BME280;6378;42.684;23.372;2022-12-10T07:06:14;94447.97;;;10.96;100.00
12626;BME280;6378;42.684;23.372;2022-12-10T07:08:41;94448.47;;;11.05;100.00
12626;BME280;6378;42.684;23.372;2022-12-10T07:11:17;94451.25;;;11.09;100.00
12626;BME280;6378;42.684;23.372;2022-12-10T07:13:43;94438.44;;;11.02;100.00
12626;BME280;6378;42.684;23.372;2022-12-10T07:16:14;94431.22;;;10.83;100.00
12626;BME280;6378;42.684;23.372;2022-12-10T07:18:39;94440.44;;;10.82;100.00
12626;BME280;6378;42.684;23.372;2022-12-10T07:23:43;94409.41;;;10.66;100.00
12626;BME280;6378;42.684;23.372;2022-12-10T07:26:08;94421.06;;;10.73;100.00
12626;BME280;6378;42.684;23.372;2022-12-10T07:28:35;94395.94;;;10.66;100.00
12626;BME280;6378;42.684;23.372;2022-12-10T07:31:05;94412.19;;;10.96;100.00
12626;BME280;6378;42.684;23.372;2022-12-10T07:33:31;94390.91;;;10.87;100.00
12626;BME280;6378;42.684;23.372;2022-12-10T07:35:56;94400.44;;;11.07;100.00
12626;BME280;6378;42.684;23.372;2022-12-10T07:38:25;94388.56;;;10.85;100.00
12626;BME280;6378;42.684;23.372;2022-12-10T07:40:51;94412.69;;;11.05;100.00
12626;BME280;6378;42.684;23.372;2022-12-10T07:43:16;94418.63;;;11.14;100.00
12626;BME280;6378;42.684;23.372;2022-12-10T07:45:42;94400.94;;;11.16;100.00
12626;BME280;6378;42.684;23.372;2022-12-10T07:48:08;94397.47;;;11.16;100.00
12626;BME280;6378;42.684;23.372;2022-12-10T07:50:33;94400.94;;;11.16;100.00
12626;BME280;6378;42.684;23.372;2022-12-10T07:52:59;94418.31;;;11.19;100.00
12626;BME280;6378;42.684;23.372;2022-12-10T07:55:24;94415.03;;;11.33;100.00
12626;BME280;6378;42.684;23.372;2022-12-10T07:57:50;94386.94;;;11.34;100.00
12626;BME280;6378;42.684;23.372;2022-12-10T08:00:15;94407.75;;;11.66;100.00
12626;BME280;6378;42.684;23.372;2022-12-10T08:02:41;94332.97;;;11.26;100.00
12626;BME280;6378;42.684;23.372;2022-12-10T08:05:07;94399.41;;;11.75;100.00
12626;BME280;6378;42.684;23.372;2022-12-10T08:07:33;94385.16;;;11.75;100.00
12626;BME280;6378;42.684;23.372;2022-12-10T08:09:58;94376.00;;;11.83;100.00
12626;BME280;6378;42.684;23.372;2022-12-10T08:12:24;94367.19;;;11.86;100.00
12626;BME280;6378;42.684;23.372;2022-12-10T08:14:49;94365.50;;;11.74;100.00
12626;BME280;6378;42.684;23.372;2022-12-10T08:17:14;94373.75;;;11.88;100.00
12626;BME280;6378;42.684;23.372;2022-12-10T08:19:40;94376.56;;;11.99;100.00
12626;BME280;6378;42.684;23.372;2022-12-10T08:22:05;94382.38;;;12.01;100.00
12626;BME280;6378;42.684;23.372;2022-12-10T08:24:31;94368.56;;;12.06;100.00
12626;BME280;6378;42.684;23.372;2022-12-10T08:26:56;94376.22;;;12.04;100.00
12626;BME280;6378;42.684;23.372;2022-12-10T08:29:22;94375.88;;;12.05;100.00
12626;BME280;6378;42.684;23.372;2022-12-10T08:31:47;94335.31;;;11.98;100.00
12626;BME280;6378;42.684;23.372;2022-12-10T08:34:15;94350.38;;;11.99;100.00
12626;BME280;6378;42.684;23.372;2022-12-10T08:36:42;94358.31;;;11.85;100.00
12626;BME280;6378;42.684;23.372;2022-12-10T08:39:08;94369.91;;;11.89;100.00
12626;BME280;6378;42.684;23.372;2022-12-10T08:41:36;94365.38;;;11.97;100.00
12626;BME280;6378;42.684;23.372;2022-12-10T08:44:02;94341.66;;;11.76;100.00
12626;BME280;6378;42.684;23.372;2022-12-10T08:46:27;94356.78;;;11.88;100.00
12626;BME280;6378;42.684;23.372;2022-12-10T08:48:54;94361.47;;;11.94;100.00
12626;BME280;6378;42.684;23.372;2022-12-10T08:51:20;94348.88;;;12.05;100.00
12626;BME280;6378;42.684;23.372;2022-12-10T08:53:45;94341.59;;;12.09;100.00
12626;BME280;6378;42.684;23.372;2022-12-10T08:56:11;94332.50;;;12.25;100.00
12626;BME280;6378;42.684;23.372;2022-12-10T08:58:37;94324.53;;;12.42;100.00
12626;BME280;6378;42.684;23.372;2022-12-10T09:01:12;94316.84;;;12.44;100.00
12626;BME280;6378;42.684;23.372;2022-12-10T09:03:38;94312.22;;;12.45;100.00
12626;BME280;6378;42.684;23.372;2022-12-10T09:06:09;94309.16;;;12.46;100.00
12626;BME280;6378;42.684;23.372;2022-12-10T09:08:35;94304.31;;;12.70;100.00
12626;BME280;6378;42.684;23.372;2022-12-10T09:11:06;94324.59;;;13.08;100.00
12626;BME280;6378;42.684;23.372;2022-12-10T09:13:32;94306.56;;;13.19;100.00
12626;BME280;6378;42.684;23.372;2022-12-10T09:15:57;94316.16;;;13.13;100.00
12626;BME280;6378;42.684;23.372;2022-12-10T09:18:22;94292.47;;;12.92;100.00
12626;BME280;6378;42.684;23.372;2022-12-10T09:20:48;94304.53;;;13.09;100.00
12626;BME280;6378;42.684;23.372;2022-12-10T09:23:13;94293.16;;;12.75;100.00
12626;BME280;6378;42.684;23.372;2022-12-10T09:25:38;94307.09;;;12.84;100.00
12626;BME280;6378;42.684;23.372;2022-12-10T09:28:04;94314.78;;;12.78;100.00
12626;BME280;6378;42.684;23.372;2022-12-10T09:30:29;94318.28;;;12.86;100.00
12626;BME280;6378;42.684;23.372;2022-12-10T09:32:55;94304.41;;;12.87;100.00
12626;BME280;6378;42.684;23.372;2022-12-10T09:35:20;94298.31;;;13.01;100.00
12626;BME280;6378;42.684;23.372;2022-12-10T09:37:45;94279.75;;;12.92;100.00
12626;BME280;6378;42.684;23.372;2022-12-10T09:40:16;94286.50;;;13.30;100.00
12626;BME280;6378;42.684;23.372;2022-12-10T09:42:56;94277.66;;;13.40;100.00
12626;BME280;6378;42.684;23.372;2022-12-10T09:45:42;94249.44;;;13.31;100.00
12626;BME280;6378;42.684;23.372;2022-12-10T09:53:59;94240.97;;;13.32;100.00
12626;BME280;6378;42.684;23.372;2022-12-10T09:56:31;94252.94;;;13.35;100.00
12626;BME280;6378;42.684;23.372;2022-12-10T09:59:06;94254.16;;;13.48;100.00
12626;BME280;6378;42.684;23.372;2022-12-10T10:01:36;94253.78;;;13.64;100.00
12626;BME280;6378;42.684;23.372;2022-12-10T10:04:03;94253.84;;;13.78;100.00
12626;BME280;6378;42.684;23.372;2022-12-10T10:06:29;94245.75;;;13.92;100.00
12626;BME280;6378;42.684;23.372;2022-12-10T10:08:58;94226.41;;;14.08;100.00
12626;BME280;6378;42.684;23.372;2022-12-10T10:11:34;94232.22;;;14.42;100.00
12626;BME280;6378;42.684;23.372;2022-12-10T10:14:12;94228.69;;;14.73;100.00
12626;BME280;6378;42.684;23.372;2022-12-10T10:16:45;94213.56;;;14.83;100.00
12626;BME280;6378;42.684;23.372;2022-12-10T10:19:15;94192.72;;;14.65;100.00
12626;BME280;6378;42.684;23.372;2022-12-10T10:21:44;94216.25;;;14.86;100.00
12626;BME280;6378;42.684;23.372;2022-12-10T10:24:15;94228.97;;;15.07;100.00
12626;BME280;6378;42.684;23.372;2022-12-10T10:26:42;94231.97;;;15.34;100.00
12626;BME280;6378;42.684;23.372;2022-12-10T10:29:11;94204.06;;;15.37;100.00
12626;BME280;6378;42.684;23.372;2022-12-10T10:31:40;94200.06;;;15.59;100.00
12626;BME280;6378;42.684;23.372;2022-12-10T10:34:15;94193.00;;;15.76;100.00
12626;BME280;6378;42.684;23.372;2022-12-10T10:36:41;94175.09;;;15.85;100.00
12626;BME280;6378;42.684;23.372;2022-12-10T10:39:28;94168.94;;;15.81;100.00
12626;BME280;6378;42.684;23.372;2022-12-10T10:41:56;94158.84;;;15.82;100.00
12626;BME280;6378;42.684;23.372;2022-12-10T10:44:24;94163.56;;;15.71;100.00
12626;BME280;6378;42.684;23.372;2022-12-10T10:46:52;94157.22;;;15.91;100.00
12626;BME280;6378;42.684;23.372;2022-12-10T10:51:46;94167.97;;;16.06;100.00
12626;BME280;6378;42.684;23.372;2022-12-10T10:54:39;94176.06;;;16.09;100.00
12626;BME280;6378;42.684;23.372;2022-12-10T10:57:10;94165.06;;;16.23;100.00
12626;BME280;6378;42.684;23.372;2022-12-10T10:59:37;94153.53;;;16.16;100.00
12626;BME280;6378;42.684;23.372;2022-12-10T11:04:51;94136.84;;;16.14;100.00
12626;BME280;6378;42.684;23.372;2022-12-10T11:07:45;94150.84;;;16.09;100.00
12626;BME280;6378;42.684;23.372;2022-12-10T11:10:22;94127.63;;;16.08;100.00
12626;BME280;6378;42.684;23.372;2022-12-10T11:13:04;94138.47;;;16.08;100.00
12626;BME280;6378;42.684;23.372;2022-12-10T11:15:35;94127.81;;;15.86;100.00
12626;BME280;6378;42.684;23.372;2022-12-10T11:18:03;94123.84;;;15.94;100.00
12626;BME280;6378;42.684;23.372;2022-12-10T11:20:33;94105.28;;;15.89;100.00
12626;BME280;6378;42.684;23.372;2022-12-10T11:23:01;94094.84;;;15.84;100.00
12626;BME280;6378;42.684;23.372;2022-12-10T11:30:48;94080.38;;;15.57;100.00
12626;BME280;6378;42.684;23.372;2022-12-10T11:36:15;94068.59;;;15.74;100.00
12626;BME280;6378;42.684;23.372;2022-12-10T11:39:10;94085.25;;;15.76;100.00
12626;BME280;6378;42.684;23.372;2022-12-10T11:41:56;94081.41;;;15.70;100.00
12626;BME280;6378;42.684;23.372;2022-12-10T11:53:13;94074.44;;;15.73;100.00
12626;BME280;6378;42.684;23.372;2022-12-10T12:09:31;94063.94;;;15.78;100.00
12626;BME280;6378;42.684;23.372;2022-12-10T12:12:14;94068.94;;;15.80;100.00
12626;BME280;6378;42.684;23.372;2022-12-10T12:14:55;94056.19;;;15.77;100.00
12626;BME280;6378;42.684;23.372;2022-12-10T12:17:43;94045.72;;;15.75;100.00
12626;BME280;6378;42.684;23.372;2022-12-10T12:20:14;94056.59;;;15.72;100.00
12626;BME280;6378;42.684;23.372;2022-12-10T12:23:00;94054.66;;;15.72;100.00
12626;BME280;6378;42.684;23.372;2022-12-10T12:25:34;94055.53;;;15.62;100.00
12626;BME280;6378;42.684;23.372;2022-12-10T12:30:26;94032.72;;;15.56;100.00
12626;BME280;6378;42.684;23.372;2022-12-10T12:33:22;94042.69;;;15.66;100.00
12626;BME280;6378;42.684;23.372;2022-12-10T12:36:02;94036.47;;;15.69;100.00
12626;BME280;6378;42.684;23.372;2022-12-10T12:39:05;94022.44;;;15.78;100.00
12626;BME280;6378;42.684;23.372;2022-12-10T12:41:50;94008.94;;;15.71;100.00
12626;BME280;6378;42.684;23.372;2022-12-10T12:44:24;94004.03;;;15.55;100.00
12626;BME280;6378;42.684;23.372;2022-12-10T12:46:56;94006.81;;;15.51;100.00
12626;BME280;6378;42.684;23.372;2022-12-10T12:49:27;94003.41;;;15.37;100.00
12626;BME280;6378;42.684;23.372;2022-12-10T12:52:00;94005.44;;;15.29;100.00
12626;BME280;6378;42.684;23.372;2022-12-10T12:54:26;94003.44;;;15.33;100.00
12626;BME280;6378;42.684;23.372;2022-12-10T13:04:53;93999.53;;;15.38;100.00
12626;BME280;6378;42.684;23.372;2022-12-10T13:09:46;93973.63;;;15.33;100.00
12626;BME280;6378;42.684;23.372;2022-12-10T13:12:26;93969.41;;;15.25;100.00
12626;BME280;6378;42.684;23.372;2022-12-10T13:17:26;93991.84;;;15.33;100.00
12626;BME280;6378;42.684;23.372;2022-12-10T13:19:53;93972.19;;;15.18;100.00
12626;BME280;6378;42.684;23.372;2022-12-10T13:25:17;93987.16;;;15.37;100.00
12626;BME280;6378;42.684;23.372;2022-12-10T13:27:57;93975.47;;;15.43;100.00
12626;BME280;6378;42.684;23.372;2022-12-10T13:30:40;93969.31;;;15.39;100.00
12626;BME280;6378;42.684;23.372;2022-12-10T13:33:17;93966.69;;;15.29;100.00
12626;BME280;6378;42.684;23.372;2022-12-10T13:35:58;93945.00;;;15.29;100.00
12626;BME280;6378;42.684;23.372;2022-12-10T13:38:26;93946.66;;;15.15;100.00
12626;BME280;6378;42.684;23.372;2022-12-10T13:41:04;93942.38;;;15.18;100.00
12626;BME280;6378;42.684;23.372;2022-12-10T13:43:57;93930.81;;;15.14;100.00
12626;BME280;6378;42.684;23.372;2022-12-10T13:46:52;93905.69;;;15.06;100.00
12626;BME280;6378;42.684;23.372;2022-12-10T13:49:20;93909.28;;;14.96;100.00
12626;BME280;6378;42.684;23.372;2022-12-10T13:52:02;93911.59;;;14.98;100.00
12626;BME280;6378;42.684;23.372;2022-12-10T14:06:02;93921.34;;;14.88;100.00
12626;BME280;6378;42.684;23.372;2022-12-10T14:08:35;93923.28;;;14.88;100.00
12626;BME280;6378;42.684;23.372;2022-12-10T14:11:05;93918.31;;;14.79;100.00
12626;BME280;6378;42.684;23.372;2022-12-10T14:13:39;93921.72;;;14.87;100.00
12626;BME280;6378;42.684;23.372;2022-12-10T14:16:10;93922.56;;;14.80;100.00
12626;BME280;6378;42.684;23.372;2022-12-10T14:18:38;93908.63;;;14.82;100.00
12626;BME280;6378;42.684;23.372;2022-12-10T14:21:06;93910.19;;;14.79;100.00
12626;BME280;6378;42.684;23.372;2022-12-10T14:23:34;93914.06;;;14.78;100.00
12626;BME280;6378;42.684;23.372;2022-12-10T14:26:11;93908.34;;;14.69;100.00
12626;BME280;6378;42.684;23.372;2022-12-10T14:28:40;93899.81;;;14.70;100.00
12626;BME280;6378;42.684;23.372;2022-12-10T14:31:12;93900.19;;;14.72;100.00
12626;BME280;6378;42.684;23.372;2022-12-10T14:33:38;93887.78;;;14.71;100.00
12626;BME280;6378;42.684;23.372;2022-12-10T14:36:04;93893.63;;;14.70;100.00
12626;BME280;6378;42.684;23.372;2022-12-10T14:38:31;93889.03;;;14.63;100.00
12626;BME280;6378;42.684;23.372;2022-12-10T14:40:59;93887.13;;;14.60;100.00
12626;BME280;6378;42.684;23.372;2022-12-10T14:43:45;93889.97;;;14.39;100.00